| time (UTC) | temp F | wind direction | speed MPH | gust MPH | rain 1hr in | rain 24hr in | rain mn in | humidity % | barometer mb |
| 20260502230031 | 63 | 273 | 6.0 | 15.0 | 0.00 | 0.01 | 0.01 | 38 | 1007.5 |
| 20260502225515 | 63 | 242 | 4.0 | 10.0 | 0.01 | 0.01 | 0.01 | 36 | 1007.5 |
| 20260502225014 | 64 | 270 | 5.0 | 13.0 | 0.01 | 0.01 | 0.01 | 35 | 1007.5 |
| 20260502224535 | 64 | 258 | 3.0 | 18.0 | 0.01 | 0.01 | 0.01 | 33 | 1007.2 |
| 20260502224013 | 64 | 294 | 8.0 | 18.0 | 0.01 | 0.01 | 0.01 | 34 | 1007.5 |
| 20260502223516 | 63 | 279 | 6.0 | 12.0 | 0.01 | 0.01 | 0.01 | 33 | 1007.3 |
| 20260502223031 | 63 | 271 | 9.0 | 12.0 | 0.01 | 0.01 | 0.01 | 38 | 1007.4 |
| 20260502222519 | 64 | 269 | 3.0 | 9.0 | 0.01 | 0.01 | 0.01 | 36 | 1007.2 |
| 20260502222016 | 64 | 257 | 6.0 | 12.0 | 0.01 | 0.01 | 0.01 | 35 | 1007.3 |
| 20260502221535 | 64 | 271 | 8.0 | 15.0 | 0.01 | 0.01 | 0.01 | 35 | 1007.3 |
| 20260502221016 | 64 | 267 | 9.0 | 15.0 | 0.01 | 0.01 | 0.01 | 38 | 1007.4 |
| 20260502220515 | 64 | 279 | 9.0 | 15.0 | 0.01 | 0.01 | 0.01 | 37 | 1007.4 |
| 20260502220037 | 64 | 276 | 6.0 | 14.0 | 0.01 | 0.01 | 0.01 | 34 | 1007.5 |
| 20260502215516 | 64 | 283 | 9.0 | 13.0 | 0.00 | 0.00 | 0.00 | 35 | 1007.6 |
| 20260502215013 | 64 | 265 | 7.0 | 16.0 | 0.00 | 0.00 | 0.00 | 37 | 1007.5 |
| 20260502214531 | 64 | 263 | 5.0 | 16.0 | 0.00 | 0.00 | 0.00 | 35 | 1007.5 |
| 20260502214018 | 64 | 265 | 8.0 | 13.0 | 0.00 | 0.00 | 0.00 | 35 | 1007.5 |
| 20260502213515 | 64 | 273 | 8.0 | 16.0 | 0.00 | 0.00 | 0.00 | 38 | 1007.5 |
| 20260502213046 | 64 | 285 | 11.0 | 17.0 | 0.00 | 0.00 | 0.00 | 36 | 1007.6 |
| 20260502212514 | 64 | 273 | 8.0 | 17.0 | 0.00 | 0.00 | 0.00 | 35 | 1007.5 |
| 20260502212014 | 65 | 244 | 9.0 | 17.0 | 0.00 | 0.00 | 0.00 | 36 | 1007.5 |
| 20260502211532 | 65 | 270 | 7.0 | 17.0 | 0.00 | 0.00 | 0.00 | 35 | 1007.6 |
| 20260502211012 | 65 | 263 | 8.0 | 15.0 | 0.00 | 0.00 | 0.00 | 34 | 1007.6 |
| 20260502210513 | 64 | 255 | 6.0 | 14.0 | 0.00 | 0.00 | 0.00 | 36 | 1007.5 |
| 20260502210031 | 65 | 255 | 6.0 | 19.0 | 0.00 | 0.00 | 0.00 | 38 | 1007.8 |
| 20260502205511 | 65 | 258 | 11.0 | 19.0 | 0.00 | 0.00 | 0.00 | 35 | 1007.9 |
| 20260502205019 | 65 | 278 | 10.0 | 17.0 | 0.00 | 0.00 | 0.00 | 34 | 1008.0 |
| 20260502204535 | 66 | 257 | 9.0 | 17.0 | 0.00 | 0.00 | 0.00 | 35 | 1008.0 |
| 20260502204015 | 65 | 285 | 7.0 | 15.0 | 0.00 | 0.00 | 0.00 | 34 | 1007.9 |
| 20260502203517 | 64 | 261 | 8.0 | 17.0 | 0.00 | 0.00 | 0.00 | 35 | 1008.0 |
| 20260502203038 | 64 | 260 | 9.0 | 17.0 | 0.00 | 0.00 | 0.00 | 36 | 1008.0 |
| 20260502202514 | 64 | 263 | 8.0 | 15.0 | 0.00 | 0.00 | 0.00 | 38 | 1008.3 |
| 20260502202017 | 64 | 257 | 11.0 | 15.0 | 0.00 | 0.00 | 0.00 | 37 | 1008.3 |
| 20260502201530 | 63 | 279 | 7.0 | 16.0 | 0.00 | 0.00 | 0.00 | 37 | 1008.4 |
| 20260502201014 | 64 | 237 | 10.0 | 16.0 | 0.00 | 0.00 | 0.00 | 39 | 1008.5 |
| 20260502200514 | 64 | 259 | 10.0 | 14.0 | 0.00 | 0.00 | 0.00 | 38 | 1008.4 |
| 20260502200055 | 65 | 242 | 6.0 | 19.0 | 0.00 | 0.00 | 0.00 | 35 | 1008.6 |
| 20260502195514 | 64 | 259 | 9.0 | 19.0 | 0.00 | 0.00 | 0.00 | 37 | 1008.7 |
| 20260502195014 | 63 | 263 | 10.0 | 16.0 | 0.00 | 0.00 | 0.00 | 40 | 1008.8 |
| 20260502194531 | 64 | 252 | 10.0 | 15.0 | 0.00 | 0.00 | 0.00 | 36 | 1009.0 |
| 20260502194014 | 64 | 255 | 10.0 | 16.0 | 0.00 | 0.00 | 0.00 | 39 | 1009.1 |
| 20260502193514 | 63 | 287 | 8.0 | 19.0 | 0.00 | 0.00 | 0.00 | 40 | 1009.1 |
| 20260502193031 | 62 | 260 | 13.0 | 19.0 | 0.00 | 0.00 | 0.00 | 41 | 1009.1 |
| 20260502192514 | 62 | 244 | 9.0 | 17.0 | 0.00 | 0.00 | 0.00 | 42 | 1009.3 |
| 20260502192014 | 62 | 219 | 10.0 | 17.0 | 0.00 | 0.00 | 0.00 | 40 | 1009.3 |
| 20260502191533 | 61 | 242 | 9.0 | 17.0 | 0.00 | 0.00 | 0.00 | 41 | 1009.6 |
| 20260502191014 | 61 | 238 | 10.0 | 18.0 | 0.00 | 0.00 | 0.00 | 40 | 1009.6 |
| 20260502190518 | 61 | 265 | 9.0 | 18.0 | 0.00 | 0.00 | 0.00 | 42 | 1009.8 |
| 20260502190030 | 61 | 256 | 12.0 | 18.0 | 0.00 | 0.00 | 0.00 | 41 | 1010.1 |
| 20260502185514 | 61 | 217 | 10.0 | 18.0 | 0.00 | 0.00 | 0.00 | 42 | 1010.2 |
| 20260502185015 | 60 | 226 | 9.0 | 15.0 | 0.00 | 0.00 | 0.00 | 42 | 1010.3 |
| 20260502184530 | 60 | 244 | 11.0 | 15.0 | 0.00 | 0.00 | 0.00 | 45 | 1010.4 |
| 20260502184014 | 60 | 255 | 8.0 | 18.0 | 0.00 | 0.00 | 0.00 | 45 | 1010.5 |
| 20260502183516 | 60 | 254 | 11.0 | 18.0 | 0.00 | 0.00 | 0.00 | 44 | 1010.5 |
| 20260502183037 | 60 | 247 | 12.0 | 18.0 | 0.00 | 0.00 | 0.00 | 43 | 1010.7 |
| 20260502182516 | 60 | 255 | 10.0 | 18.0 | 0.00 | 0.00 | 0.00 | 43 | 1010.8 |
| 20260502182014 | 59 | 261 | 12.0 | 22.0 | 0.00 | 0.00 | 0.00 | 44 | 1010.8 |
| 20260502181531 | 59 | 225 | 9.0 | 22.0 | 0.00 | 0.00 | 0.00 | 46 | 1010.7 |
| 20260502181014 | 59 | 237 | 12.0 | 18.0 | 0.00 | 0.00 | 0.00 | 43 | 1011.0 |
| 20260502180517 | 58 | 261 | 11.0 | 18.0 | 0.00 | 0.00 | 0.00 | 45 | 1011.0 |
| 20260502170514 | 55 | 260 | 10.0 | 20.0 | 0.00 | 0.00 | 0.00 | 48 | 1012.0 |
| 20260502164016 | 55 | 242 | 10.0 | 16.0 | 0.00 | 0.00 | 0.00 | 46 | 1012.6 |
| 20260502163515 | 54 | 253 | 10.0 | 16.0 | 0.00 | 0.00 | 0.00 | 46 | 1012.5 |
| 20260502163034 | 54 | 254 | 11.0 | 16.0 | 0.00 | 0.00 | 0.00 | 46 | 1012.7 |
| 20260502162515 | 54 | 251 | 8.0 | 14.0 | 0.00 | 0.00 | 0.00 | 50 | 1012.7 |
| 20260502162014 | 54 | 212 | 10.0 | 17.0 | 0.00 | 0.00 | 0.00 | 48 | 1012.7 |
| 20260502161537 | 54 | 223 | 8.0 | 17.0 | 0.00 | 0.00 | 0.00 | 46 | 1012.8 |
| 20260502161015 | 53 | 254 | 10.0 | 16.0 | 0.00 | 0.00 | 0.00 | 47 | 1012.9 |
| 20260502160515 | 53 | 240 | 9.0 | 16.0 | 0.00 | 0.00 | 0.00 | 46 | 1012.9 |
| 20260502152017 | 51 | 251 | 7.0 | 11.0 | 0.00 | 0.00 | 0.00 | 51 | 1013.6 |
| 20260502151531 | 51 | 211 | 7.0 | 12.0 | 0.00 | 0.00 | 0.00 | 53 | 1013.6 |
| 20260502151016 | 51 | 250 | 8.0 | 12.0 | 0.00 | 0.00 | 0.00 | 52 | 1013.6 |
| 20260502150513 | 50 | 235 | 6.0 | 12.0 | 0.00 | 0.00 | 0.00 | 53 | 1013.6 |
| 20260502130516 | 44 | 254 | 4.0 | 8.0 | 0.00 | 0.00 | 0.00 | 64 | 1014.7 |
| 20260502123518 | 41 | 267 | 4.0 | 7.0 | 0.00 | 0.00 | 0.00 | 70 | 1014.9 |
| 20260502123034 | 41 | 269 | 3.0 | 4.0 | 0.00 | 0.00 | 0.00 | 69 | 1014.7 |
| 20260502122515 | 40 | 268 | 3.0 | 6.0 | 0.00 | 0.00 | 0.00 | 68 | 1014.8 |
| 20260502122015 | 40 | 265 | 2.0 | 6.0 | 0.00 | 0.00 | 0.00 | 70 | 1014.9 |
| 20260502121535 | 40 | 265 | 3.0 | 6.0 | 0.00 | 0.00 | 0.00 | 70 | 1014.9 |
| 20260502121015 | 39 | 268 | 3.0 | 6.0 | 0.00 | 0.00 | 0.00 | 70 | 1014.8 |
| 20260502120514 | 38 | 286 | 2.0 | 6.0 | 0.00 | 0.00 | 0.00 | 71 | 1014.7 |
| 20260502115515 | 38 | 288 | 2.0 | 4.0 | 0.00 | 0.00 | 0.00 | 69 | 1014.8 |
| 20260502115013 | 37 | 276 | 2.0 | 4.0 | 0.00 | 0.00 | 0.00 | 70 | 1015.0 |
| 20260502114538 | 37 | 292 | 1.0 | 3.0 | 0.00 | 0.00 | 0.00 | 71 | 1014.9 |
| 20260502114015 | 37 | 302 | 0.0 | 2.0 | 0.00 | 0.00 | 0.00 | 72 | 1015.0 |
| 20260502113515 | 36 | 302 | 0.0 | 2.0 | 0.00 | 0.00 | 0.00 | 72 | 1014.8 |
| 20260502113036 | 36 | 302 | 0.0 | 2.0 | 0.00 | 0.00 | 0.00 | 72 | 1015.0 |
| 20260502112514 | 36 | 302 | 0.0 | 2.0 | 0.00 | 0.00 | 0.00 | 73 | 1014.9 |
| 20260502112019 | 36 | 302 | 1.0 | 2.0 | 0.00 | 0.00 | 0.00 | 74 | 1014.9 |
| 20260502111532 | 36 | 0 | 0.0 | 2.0 | 0.00 | 0.00 | 0.00 | 75 | 1015.0 |
| 20260502111015 | 35 | 302 | 0.0 | 1.0 | 0.00 | 0.00 | 0.00 | 75 | 1014.9 |
| 20260502110513 | 35 | 0 | 0.0 | 0.0 | 0.00 | 0.00 | 0.00 | 75 | 1014.9 |
| 20260502110035 | 35 | 0 | 0.0 | 0.0 | 0.00 | 0.00 | 0.00 | 75 | 1014.9 |
| 20260502105516 | 35 | 0 | 0.0 | 1.0 | 0.00 | 0.00 | 0.00 | 74 | 1015.1 |
| 20260502105014 | 35 | 0 | 0.0 | 1.0 | 0.00 | 0.00 | 0.00 | 75 | 1015.0 |
| 20260502104536 | 35 | 0 | 0.0 | 2.0 | 0.00 | 0.00 | 0.00 | 75 | 1014.8 |
| 20260502104017 | 35 | 0 | 0.0 | 2.0 | 0.00 | 0.00 | 0.00 | 74 | 1015.1 |
| 20260502103516 | 35 | 302 | 1.0 | 2.0 | 0.00 | 0.00 | 0.00 | 75 | 1015.0 |
| 20260502103057 | 35 | 302 | 0.0 | 1.0 | 0.00 | 0.00 | 0.00 | 73 | 1014.9 |
| 20260502102513 | 35 | 302 | 0.0 | 1.0 | 0.00 | 0.00 | 0.00 | 74 | 1015.1 |
| 20260502102016 | 35 | 302 | 0.0 | 1.0 | 0.00 | 0.00 | 0.00 | 74 | 1015.0 |
| 20260502101546 | 35 | 0 | 0.0 | 2.0 | 0.00 | 0.00 | 0.00 | 74 | 1015.0 |
| 20260502101016 | 35 | 302 | 0.0 | 2.0 | 0.00 | 0.00 | 0.00 | 75 | 1015.0 |
| 20260502100512 | 35 | 302 | 1.0 | 2.0 | 0.00 | 0.00 | 0.00 | 78 | 1015.0 |
| 20260502091533 | 34 | 302 | 0.0 | 2.0 | 0.00 | 0.00 | 0.00 | 75 | 1014.9 |
| 20260502091016 | 34 | 302 | 0.0 | 2.0 | 0.00 | 0.00 | 0.00 | 77 | 1015.1 |
| 20260502090515 | 34 | 302 | 0.0 | 2.0 | 0.00 | 0.00 | 0.00 | 77 | 1015.0 |
| 20260502071536 | 38 | 0 | 0.0 | 2.0 | 0.00 | 0.00 | 0.00 | 71 | 1015.0 |
| 20260502071014 | 38 | 302 | 1.0 | 2.0 | 0.00 | 0.00 | 0.00 | 69 | 1015.2 |
| 20260502070513 | 38 | 302 | 1.0 | 2.0 | 0.00 | 0.00 | 0.00 | 68 | 1015.2 |
| 20260502070034 | 38 | 302 | 1.0 | 2.0 | 0.00 | 0.00 | 0.00 | 68 | 1015.2 |
| 20260502065516 | 38 | 302 | 1.0 | 2.0 | 0.00 | 0.00 | 0.00 | 65 | 1015.2 |
| 20260502065017 | 38 | 302 | 1.0 | 2.0 | 0.00 | 0.00 | 0.00 | 66 | 1015.4 |
| 20260502064537 | 38 | 302 | 1.0 | 2.0 | 0.00 | 0.00 | 0.00 | 66 | 1015.3 |
| 20260502064015 | 38 | 302 | 1.0 | 2.0 | 0.00 | 0.00 | 0.00 | 68 | 1015.4 |
| 20260502063513 | 38 | 302 | 1.0 | 2.0 | 0.00 | 0.00 | 0.00 | 67 | 1015.4 |
| 20260502063042 | 38 | 302 | 1.0 | 2.0 | 0.00 | 0.00 | 0.00 | 68 | 1015.4 |
| 20260502062516 | 38 | 302 | 1.0 | 3.0 | 0.00 | 0.00 | 0.00 | 69 | 1015.5 |
| 20260502062016 | 38 | 302 | 1.0 | 3.0 | 0.00 | 0.00 | 0.00 | 67 | 1015.5 |
| 20260502061533 | 38 | 302 | 1.0 | 3.0 | 0.00 | 0.00 | 0.00 | 68 | 1015.5 |
| 20260502061019 | 38 | 302 | 1.0 | 3.0 | 0.00 | 0.00 | 0.00 | 67 | 1015.4 |
| 20260502060516 | 38 | 302 | 1.0 | 3.0 | 0.00 | 0.00 | 0.00 | 68 | 1015.4 |
| 20260502060034 | 38 | 302 | 1.0 | 3.0 | 0.00 | 0.00 | 0.00 | 69 | 1015.4 |
| 20260502055514 | 38 | 302 | 1.0 | 3.0 | 0.00 | 0.00 | 0.00 | 68 | 1015.4 |
| 20260502055013 | 38 | 302 | 1.0 | 3.0 | 0.00 | 0.00 | 0.00 | 66 | 1015.4 |
| 20260502054548 | 38 | 302 | 2.0 | 3.0 | 0.00 | 0.00 | 0.00 | 66 | 1015.4 |
| 20260502054013 | 38 | 302 | 1.0 | 3.0 | 0.00 | 0.00 | 0.00 | 67 | 1015.5 |
| 20260502053513 | 38 | 302 | 1.0 | 3.0 | 0.00 | 0.00 | 0.00 | 68 | 1015.5 |
| 20260502053037 | 38 | 302 | 1.0 | 3.0 | 0.00 | 0.00 | 0.00 | 69 | 1015.4 |
| 20260502052514 | 38 | 302 | 1.0 | 3.0 | 0.00 | 0.00 | 0.00 | 68 | 1015.4 |
| 20260502052045 | 38 | 302 | 1.0 | 3.0 | 0.00 | 0.00 | 0.00 | 67 | 1015.4 |
| 20260502051533 | 38 | 302 | 1.0 | 3.0 | 0.00 | 0.00 | 0.00 | 68 | 1015.3 |
| 20260502051014 | 39 | 302 | 1.0 | 2.0 | 0.00 | 0.00 | 0.00 | 69 | 1015.4 |
| 20260502050513 | 39 | 302 | 1.0 | 2.0 | 0.00 | 0.00 | 0.00 | 69 | 1015.3 |
| 20260502050031 | 39 | 302 | 1.0 | 2.0 | 0.00 | 0.00 | 0.00 | 69 | 1015.4 |
| 20260502045514 | 39 | 302 | 1.0 | 2.0 | 0.00 | 0.00 | 0.00 | 69 | 1015.4 |
| 20260502045014 | 39 | 302 | 1.0 | 2.0 | 0.00 | 0.00 | 0.00 | 68 | 1015.5 |
| 20260502044530 | 39 | 302 | 1.0 | 2.0 | 0.00 | 0.00 | 0.00 | 68 | 1015.5 |
| 20260502044013 | 39 | 302 | 1.0 | 3.0 | 0.00 | 0.00 | 0.00 | 68 | 1015.4 |
| 20260502043516 | 39 | 302 | 1.0 | 3.0 | 0.00 | 0.00 | 0.00 | 69 | 1015.4 |
| 20260502043031 | 39 | 302 | 1.0 | 2.0 | 0.00 | 0.00 | 0.00 | 68 | 1015.4 |
| 20260502042515 | 39 | 302 | 1.0 | 2.0 | 0.00 | 0.00 | 0.00 | 68 | 1015.5 |
| 20260502042017 | 39 | 302 | 1.0 | 2.0 | 0.00 | 0.00 | 0.00 | 66 | 1015.6 |
| 20260502041537 | 40 | 302 | 1.0 | 3.0 | 0.00 | 0.00 | 0.00 | 67 | 1015.6 |
| 20260502041017 | 40 | 302 | 1.0 | 3.0 | 0.00 | 0.00 | 0.00 | 68 | 1015.5 |
| 20260502040513 | 40 | 302 | 1.0 | 2.0 | 0.00 | 0.00 | 0.00 | 67 | 1015.5 |
| 20260502040034 | 40 | 302 | 1.0 | 2.0 | 0.00 | 0.00 | 0.00 | 65 | 1015.6 |
| 20260502035513 | 40 | 302 | 1.0 | 2.0 | 0.00 | 0.00 | 0.00 | 65 | 1015.5 |
| 20260502035013 | 41 | 302 | 1.0 | 2.0 | 0.00 | 0.00 | 0.00 | 66 | 1015.6 |
| 20260502034534 | 41 | 302 | 0.0 | 2.0 | 0.00 | 0.00 | 0.00 | 66 | 1015.6 |
| 20260502034019 | 41 | 302 | 1.0 | 2.0 | 0.00 | 0.00 | 0.00 | 65 | 1015.5 |
| 20260502033514 | 41 | 302 | 0.0 | 2.0 | 0.00 | 0.00 | 0.00 | 64 | 1015.7 |
| 20260502033039 | 42 | 302 | 0.0 | 2.0 | 0.00 | 0.00 | 0.00 | 61 | 1015.7 |
| 20260502032516 | 42 | 302 | 1.0 | 2.0 | 0.00 | 0.00 | 0.00 | 62 | 1015.4 |
| 20260502032015 | 42 | 302 | 1.0 | 2.0 | 0.00 | 0.00 | 0.00 | 60 | 1015.4 |
| 20260502031533 | 42 | 302 | 1.0 | 2.0 | 0.00 | 0.00 | 0.00 | 61 | 1015.5 |
| 20260502031014 | 42 | 302 | 1.0 | 2.0 | 0.00 | 0.00 | 0.00 | 59 | 1015.5 |
| 20260502030515 | 43 | 302 | 1.0 | 2.0 | 0.00 | 0.00 | 0.00 | 58 | 1015.5 |
| 20260502030035 | 43 | 302 | 1.0 | 3.0 | 0.00 | 0.00 | 0.00 | 56 | 1015.4 |
| 20260502025516 | 44 | 302 | 0.0 | 3.0 | 0.00 | 0.00 | 0.00 | 56 | 1015.4 |
| 20260502025016 | 44 | 0 | 0.0 | 0.0 | 0.00 | 0.00 | 0.00 | 55 | 1015.3 |
| 20260502024530 | 44 | 0 | 0.0 | 0.0 | 0.00 | 0.00 | 0.00 | 52 | 1015.5 |
| 20260502024018 | 44 | 0 | 0.0 | 0.0 | 0.00 | 0.00 | 0.00 | 52 | 1015.4 |
| 20260502023516 | 45 | 0 | 0.0 | 0.0 | 0.00 | 0.00 | 0.00 | 51 | 1015.3 |
| 20260502023031 | 45 | 0 | 0.0 | 0.0 | 0.00 | 0.00 | 0.00 | 52 | 1015.2 |
| 20260502022512 | 45 | 0 | 0.0 | 0.0 | 0.00 | 0.00 | 0.00 | 53 | 1015.3 |
| 20260502022020 | 46 | 0 | 0.0 | 1.0 | 0.00 | 0.00 | 0.00 | 50 | 1015.3 |
| 20260502021531 | 46 | 0 | 0.0 | 2.0 | 0.00 | 0.00 | 0.00 | 52 | 1015.3 |
| 20260502021016 | 46 | 0 | 0.0 | 3.0 | 0.00 | 0.00 | 0.00 | 48 | 1015.2 |
| 20260502020516 | 46 | 130 | 1.0 | 3.0 | 0.00 | 0.00 | 0.00 | 47 | 1015.3 |
| 20260502020032 | 47 | 130 | 1.0 | 2.0 | 0.00 | 0.00 | 0.00 | 47 | 1015.2 |
| 20260502015514 | 47 | 130 | 1.0 | 2.0 | 0.00 | 0.00 | 0.00 | 46 | 1015.1 |
| 20260502015017 | 48 | 130 | 1.0 | 2.0 | 0.00 | 0.00 | 0.00 | 46 | 1015.0 |
| 20260502014534 | 48 | 130 | 1.0 | 2.0 | 0.00 | 0.00 | 0.00 | 47 | 1015.2 |
| 20260502014012 | 49 | 130 | 1.0 | 2.0 | 0.00 | 0.00 | 0.00 | 47 | 1015.2 |
| 20260502013512 | 49 | 130 | 0.0 | 2.0 | 0.00 | 0.00 | 0.00 | 45 | 1015.1 |
| 20260502013032 | 49 | 0 | 0.0 | 2.0 | 0.00 | 0.00 | 0.00 | 43 | 1015.1 |
| 20260502012515 | 49 | 0 | 0.0 | 2.0 | 0.00 | 0.00 | 0.00 | 42 | 1015.1 |
| 20260502012015 | 50 | 130 | 0.0 | 2.0 | 0.00 | 0.00 | 0.00 | 42 | 1014.9 |
| 20260502011532 | 50 | 130 | 0.0 | 2.0 | 0.00 | 0.00 | 0.00 | 41 | 1014.7 |
| 20260502011015 | 50 | 0 | 1.0 | 2.0 | 0.00 | 0.00 | 0.00 | 42 | 1014.8 |
| 20260502010512 | 50 | 130 | 0.0 | 1.0 | 0.00 | 0.00 | 0.00 | 42 | 1014.8 |
| 20260502010038 | 50 | 0 | 0.0 | 1.0 | 0.00 | 0.00 | 0.00 | 42 | 1014.8 |
| 20260502005515 | 50 | 130 | 0.0 | 2.0 | 0.00 | 0.01 | 0.00 | 41 | 1014.7 |
| 20260502005013 | 51 | 130 | 0.0 | 2.0 | 0.00 | 0.01 | 0.00 | 40 | 1015.0 |
| 20260502004532 | 51 | 0 | 0.0 | 1.0 | 0.00 | 0.01 | 0.00 | 41 | 1014.8 |
| 20260502004015 | 51 | 0 | 0.0 | 1.0 | 0.00 | 0.01 | 0.00 | 44 | 1014.7 |
| 20260502003515 | 51 | 0 | 0.0 | 1.0 | 0.00 | 0.01 | 0.00 | 40 | 1014.6 |
| 20260502003035 | 51 | 0 | 0.0 | 1.0 | 0.00 | 0.01 | 0.00 | 40 | 1014.8 |
| 20260502002513 | 51 | 0 | 0.0 | 1.0 | 0.00 | 0.01 | 0.00 | 40 | 1014.7 |
| 20260502002015 | 51 | 130 | 0.0 | 3.0 | 0.00 | 0.01 | 0.00 | 39 | 1014.7 |
| 20260502001533 | 51 | 0 | 2.0 | 4.0 | 0.00 | 0.01 | 0.00 | 40 | 1014.8 |
| 20260502001016 | 51 | 130 | 3.0 | 4.0 | 0.00 | 0.01 | 0.00 | 41 | 1014.8 |
| 20260502000514 | 51 | 128 | 3.0 | 4.0 | 0.00 | 0.01 | 0.00 | 42 | 1014.7 |
| 20260502000032 | 51 | 111 | 2.0 | 6.0 | 0.00 | 0.01 | 0.00 | 46 | 1014.8 |
| 20260501235516 | 51 | 101 | 2.0 | 6.0 | 0.00 | 0.01 | 0.00 | 49 | 1014.8 |
| 20260501235016 | 51 | 101 | 2.0 | 7.0 | 0.00 | 0.01 | 0.00 | 43 | 1014.9 |
| 20260501234535 | 51 | 118 | 4.0 | 7.0 | 0.00 | 0.01 | 0.00 | 43 | 1014.8 |
| 20260501234016 | 52 | 116 | 2.0 | 4.0 | 0.00 | 0.01 | 0.00 | 41 | 1015.0 |
| 20260501233514 | 52 | 86 | 1.0 | 4.0 | 0.00 | 0.01 | 0.00 | 44 | 1014.8 |
| 20260501233042 | 52 | 80 | 1.0 | 4.0 | 0.00 | 0.01 | 0.00 | 38 | 1015.1 |
| 20260501232515 | 52 | 0 | 1.0 | 4.0 | 0.00 | 0.01 | 0.00 | 38 | 1015.1 |
| 20260501232017 | 52 | 0 | 0.0 | 4.0 | 0.00 | 0.01 | 0.00 | 38 | 1015.1 |
| 20260501231532 | 52 | 182 | 0.0 | 5.0 | 0.00 | 0.01 | 0.00 | 41 | 1015.1 |
| 20260501231017 | 52 | 114 | 2.0 | 5.0 | 0.00 | 0.01 | 0.00 | 41 | 1015.0 |
| 20260501230517 | 52 | 86 | 2.0 | 6.0 | 0.00 | 0.01 | 0.00 | 42 | 1015.0 |